Airfield :
LOGIN :

Register | Disclaimer

   EN    FR    IT 

 










Legend :    VFR   Marginal VFR   IFR   Intensive IFR   Very Intensive IFR
Visi :
Ceiling :
>= 8 km
>= 3000ft
5 to 8 km
1000 to 3000 ft
1500m to 5 km
500 to 1000 ft
800 to 1500m
200 to 500 ft
< 800m
< 200 ft
Symbols :   Thunderstorms  Fog  Heavy snow  Heavy precipitations  Wind > 20 kt
SIGMETs :     Misc.  Thunderstorms  Icing  Turbulence  Mountain Waves  Volcanic Ashes






- Airport Elevation : 49 ft
- IATA code : GLZ


EHGR - Gilze-Rijen Airbase

CURRENT METAR :
  • 191625Z AUTO 23005KT 200V270 9999 OVC130 07/01 Q1020 BLU

EXPIRED METARs :
  • 191555Z AUTO 25008KT 9999 OVC170 07/01 Q1020 BLU
  • 191525Z AUTO 25010KT 220V290 9999 FEW033 OVC190 07/01 Q1021 BLU
  • 191508Z AUTO 25010KT 9999 OVC180 07/01 Q1021 BLU
  • 191455Z AUTO 26011G22KT 230V300 9999 OVC190 07/01 Q1021 BLU 27012G22KT 9999 SCT032 BKN220
  • 191425Z AUTO 25014KT 230V290 9999 SCT031 BKN035 BKN040 08/01 Q1021 BLU 27012G22KT 9999 SCT032 BKN220
  • 191355Z AUTO 25013KT 9999 FEW030 SCT037 OVC210 08/01 Q1021 BLU 27012G22KT 9999 SCT032 BKN220

TAF TAF EHGR
Valid from the 19 at 14:00 until the 20 at 02:00 UTC


191315Z 1914/2002 27015KT 9999 SCT025
BECMG 1917/1919 21007KT
BECMG 1921/1923 22012KT SCT012 BKN015
TEMPO 1922/2002 4000 RADZ SCT008 BKN010



MET'MAP, your aeronautical weather chart ! - Copyright ORBIFLY December 2007 - Disclaimer

ORBIFLY MET'MAP TEAM :

Programming & Development : Alexandra Zaïnal
Concept & original design : Baudouin d'Aumeries
Assistance for programming : Marc-Olivier Méhu
Technical & hardware support : Manuel Goepfert

Contact : metmap@orbifly.com




SOURCES & CREDITS :

   NOAA